sensor_id;sensor_type;location;lat;lon;timestamp;pressure;altitude;pressure_sealevel;temperature;humidity
35331;BME280;21441;52.190;20.910;2022-12-15T00:01:18;98889.22;;;-4.50;100.00
35331;BME280;21441;52.190;20.910;2022-12-15T00:04:03;98904.06;;;-4.39;100.00
35331;BME280;21441;52.190;20.910;2022-12-15T00:06:48;98909.47;;;-4.29;100.00
35331;BME280;21441;52.190;20.910;2022-12-15T00:09:33;98908.13;;;-4.35;100.00
35331;BME280;21441;52.190;20.910;2022-12-15T00:12:18;98910.00;;;-4.37;100.00
35331;BME280;21441;52.190;20.910;2022-12-15T00:15:03;98910.00;;;-4.37;100.00
35331;BME280;21441;52.190;20.910;2022-12-15T00:17:48;98909.16;;;-4.38;100.00
35331;BME280;21441;52.190;20.910;2022-12-15T00:20:33;98909.50;;;-4.42;100.00
35331;BME280;21441;52.190;20.910;2022-12-15T00:23:18;98886.81;;;-4.53;100.00
35331;BME280;21441;52.190;20.910;2022-12-15T00:26:04;98895.75;;;-4.44;100.00
35331;BME280;21441;52.190;20.910;2022-12-15T00:28:48;98892.16;;;-4.30;100.00
35331;BME280;21441;52.190;20.910;2022-12-15T00:31:33;98896.53;;;-4.31;100.00
35331;BME280;21441;52.190;20.910;2022-12-15T00:34:20;98888.16;;;-4.34;100.00
35331;BME280;21441;52.190;20.910;2022-12-15T00:37:05;98900.31;;;-4.35;100.00
35331;BME280;21441;52.190;20.910;2022-12-15T00:39:49;98883.47;;;-4.42;100.00
35331;BME280;21441;52.190;20.910;2022-12-15T00:42:25;98898.31;;;-4.31;100.00
35331;BME280;21441;52.190;20.910;2022-12-15T00:44:53;98873.38;;;-4.47;100.00
35331;BME280;21441;52.190;20.910;2022-12-15T00:47:20;98894.91;;;-4.32;100.00
35331;BME280;21441;52.190;20.910;2022-12-15T00:49:47;98887.13;;;-4.45;100.00
35331;BME280;21441;52.190;20.910;2022-12-15T00:52:31;98893.63;;;-4.26;100.00
35331;BME280;21441;52.190;20.910;2022-12-15T00:55:16;98893.63;;;-4.26;100.00
35331;BME280;21441;52.190;20.910;2022-12-15T00:58:02;98888.91;;;-4.21;100.00
35331;BME280;21441;52.190;20.910;2022-12-15T01:00:46;98873.06;;;-4.42;100.00
35331;BME280;21441;52.190;20.910;2022-12-15T01:03:31;98882.59;;;-4.30;100.00
35331;BME280;21441;52.190;20.910;2022-12-15T01:06:17;98884.25;;;-4.29;100.00
35331;BME280;21441;52.190;20.910;2022-12-15T01:09:04;98883.09;;;-4.25;100.00
35331;BME280;21441;52.190;20.910;2022-12-15T01:11:49;98851.88;;;-4.38;100.00
35331;BME280;21441;52.190;20.910;2022-12-15T01:14:35;98877.97;;;-4.26;100.00
35331;BME280;21441;52.190;20.910;2022-12-15T01:17:20;98882.13;;;-4.24;100.00
35331;BME280;21441;52.190;20.910;2022-12-15T01:20:06;98878.66;;;-4.36;100.00
35331;BME280;21441;52.190;20.910;2022-12-15T01:22:39;98881.75;;;-4.30;100.00
35331;BME280;21441;52.190;20.910;2022-12-15T01:25:09;98879.13;;;-4.30;100.00
35331;BME280;21441;52.190;20.910;2022-12-15T01:27:36;98888.91;;;-4.21;100.00
35331;BME280;21441;52.190;20.910;2022-12-15T01:30:09;98883.81;;;-4.23;100.00
35331;BME280;21441;52.190;20.910;2022-12-15T01:32:36;98887.34;;;-4.24;100.00
35331;BME280;21441;52.190;20.910;2022-12-15T01:35:04;98862.94;;;-4.34;100.00
35331;BME280;21441;52.190;20.910;2022-12-15T01:37:32;98888.25;;;-4.12;100.00
35331;BME280;21441;52.190;20.910;2022-12-15T01:40:00;98881.25;;;-4.11;100.00
35331;BME280;21441;52.190;20.910;2022-12-15T01:42:44;98886.19;;;-3.96;100.00
35331;BME280;21441;52.190;20.910;2022-12-15T01:45:40;98893.28;;;-3.98;100.00
35331;BME280;21441;52.190;20.910;2022-12-15T01:48:13;98891.13;;;-4.04;100.00
35331;BME280;21441;52.190;20.910;2022-12-15T01:50:44;98886.53;;;-4.00;100.00
35331;BME280;21441;52.190;20.910;2022-12-15T01:53:13;98886.75;;;-4.03;100.00
35331;BME280;21441;52.190;20.910;2022-12-15T01:55:43;98884.81;;;-3.88;100.00
35331;BME280;21441;52.190;20.910;2022-12-15T01:58:12;98880.81;;;-4.05;100.00
35331;BME280;21441;52.190;20.910;2022-12-15T02:00:42;98879.09;;;-3.94;100.00
35331;BME280;21441;52.190;20.910;2022-12-15T02:03:10;98876.44;;;-4.05;100.00
35331;BME280;21441;52.190;20.910;2022-12-15T02:05:38;98880.81;;;-4.05;100.00
35331;BME280;21441;52.190;20.910;2022-12-15T02:08:07;98877.59;;;-4.09;100.00
35331;BME280;21441;52.190;20.910;2022-12-15T02:10:44;98879.00;;;-4.16;100.00
35331;BME280;21441;52.190;20.910;2022-12-15T02:13:22;98880.47;;;-4.01;100.00
35331;BME280;21441;52.190;20.910;2022-12-15T02:15:58;98864.00;;;-4.12;100.00
35331;BME280;21441;52.190;20.910;2022-12-15T02:18:33;98889.13;;;-4.00;100.00
35331;BME280;21441;52.190;20.910;2022-12-15T02:21:07;98891.25;;;-4.05;100.00
35331;BME280;21441;52.190;20.910;2022-12-15T02:24:18;98890.66;;;-3.98;100.00
35331;BME280;21441;52.190;20.910;2022-12-15T02:30:21;98885.22;;;-4.06;100.00
35331;BME280;21441;52.190;20.910;2022-12-15T02:33:01;98894.84;;;-3.95;100.00
35331;BME280;21441;52.190;20.910;2022-12-15T02:35:43;98881.88;;;-3.84;100.00
35331;BME280;21441;52.190;20.910;2022-12-15T02:38:11;98889.72;;;-3.72;100.00
35331;BME280;21441;52.190;20.910;2022-12-15T02:40:40;98866.19;;;-3.95;100.00
35331;BME280;21441;52.190;20.910;2022-12-15T02:43:08;98885.41;;;-3.85;100.00
35331;BME280;21441;52.190;20.910;2022-12-15T02:45:46;98848.34;;;-4.12;100.00
35331;BME280;21441;52.190;20.910;2022-12-15T02:48:26;98892.28;;;-3.84;100.00
35331;BME280;21441;52.190;20.910;2022-12-15T02:51:07;98902.47;;;-3.81;100.00
35331;BME280;21441;52.190;20.910;2022-12-15T02:53:50;98899.81;;;-3.68;100.00
35331;BME280;21441;52.190;20.910;2022-12-15T02:56:25;98899.97;;;-3.47;100.00
35331;BME280;21441;52.190;20.910;2022-12-15T02:59:03;98900.06;;;-3.60;100.00
35331;BME280;21441;52.190;20.910;2022-12-15T03:01:40;98913.19;;;-3.72;100.00
35331;BME280;21441;52.190;20.910;2022-12-15T03:04:09;98902.56;;;-3.82;100.00
35331;BME280;21441;52.190;20.910;2022-12-15T03:06:39;98865.69;;;-4.00;100.00
35331;BME280;21441;52.190;20.910;2022-12-15T03:09:06;98905.84;;;-3.67;100.00
35331;BME280;21441;52.190;20.910;2022-12-15T03:11:34;98898.66;;;-3.88;100.00
35331;BME280;21441;52.190;20.910;2022-12-15T03:14:02;98904.41;;;-3.71;100.00
35331;BME280;21441;52.190;20.910;2022-12-15T03:16:30;98908.47;;;-3.91;100.00
35331;BME280;21441;52.190;20.910;2022-12-15T03:18:58;98899.16;;;-3.83;100.00
35331;BME280;21441;52.190;20.910;2022-12-15T03:21:26;98894.91;;;-3.84;100.00
35331;BME280;21441;52.190;20.910;2022-12-15T03:23:53;98900.25;;;-3.74;100.00
35331;BME280;21441;52.190;20.910;2022-12-15T03:26:20;98898.22;;;-3.82;100.00
35331;BME280;21441;52.190;20.910;2022-12-15T03:28:47;98896.41;;;-3.92;100.00
35331;BME280;21441;52.190;20.910;2022-12-15T03:31:14;98911.50;;;-3.98;100.00
35331;BME280;21441;52.190;20.910;2022-12-15T03:33:41;98905.19;;;-4.06;100.00
35331;BME280;21441;52.190;20.910;2022-12-15T03:36:10;98914.75;;;-3.94;100.00
35331;BME280;21441;52.190;20.910;2022-12-15T03:38:37;98905.81;;;-4.03;100.00
35331;BME280;21441;52.190;20.910;2022-12-15T03:41:05;98869.44;;;-4.04;100.00
35331;BME280;21441;52.190;20.910;2022-12-15T03:43:32;98936.47;;;-3.82;100.00
35331;BME280;21441;52.190;20.910;2022-12-15T03:45:59;98939.63;;;-3.90;100.00
35331;BME280;21441;52.190;20.910;2022-12-15T03:48:26;98936.19;;;-3.66;100.00
35331;BME280;21441;52.190;20.910;2022-12-15T03:50:53;98932.59;;;-3.77;100.00
35331;BME280;21441;52.190;20.910;2022-12-15T03:53:22;98929.91;;;-3.64;100.00
35331;BME280;21441;52.190;20.910;2022-12-15T03:55:49;98933.41;;;-3.76;100.00
35331;BME280;21441;52.190;20.910;2022-12-15T03:58:16;98933.69;;;-3.68;100.00
35331;BME280;21441;52.190;20.910;2022-12-15T04:00:43;98914.31;;;-3.88;100.00
35331;BME280;21441;52.190;20.910;2022-12-15T04:03:10;98930.09;;;-3.78;100.00
35331;BME280;21441;52.190;20.910;2022-12-15T04:05:38;98934.75;;;-3.70;100.00
35331;BME280;21441;52.190;20.910;2022-12-15T04:08:05;98935.66;;;-3.47;100.00
35331;BME280;21441;52.190;20.910;2022-12-15T04:10:34;98922.44;;;-3.68;100.00
35331;BME280;21441;52.190;20.910;2022-12-15T04:13:02;98934.53;;;-3.56;100.00
35331;BME280;21441;52.190;20.910;2022-12-15T04:15:30;98935.53;;;-3.46;100.00
35331;BME280;21441;52.190;20.910;2022-12-15T04:17:59;98944.22;;;-3.34;100.00
35331;BME280;21441;52.190;20.910;2022-12-15T04:20:27;98956.34;;;-3.22;100.00
35331;BME280;21441;52.190;20.910;2022-12-15T04:22:54;98944.22;;;-3.69;100.00
35331;BME280;21441;52.190;20.910;2022-12-15T04:25:23;98947.66;;;-3.69;100.00
35331;BME280;21441;52.190;20.910;2022-12-15T04:28:11;98938.38;;;-3.49;100.00
35331;BME280;21441;52.190;20.910;2022-12-15T04:30:57;98953.72;;;-3.33;100.00
35331;BME280;21441;52.190;20.910;2022-12-15T04:33:45;98956.84;;;-3.52;100.00
35331;BME280;21441;52.190;20.910;2022-12-15T04:36:31;98924.09;;;-3.67;100.00
35331;BME280;21441;52.190;20.910;2022-12-15T04:39:17;98959.31;;;-3.62;100.00
35331;BME280;21441;52.190;20.910;2022-12-15T04:42:02;98964.97;;;-3.68;100.00
35331;BME280;21441;52.190;20.910;2022-12-15T04:44:48;98901.03;;;-4.09;100.00
35331;BME280;21441;52.190;20.910;2022-12-15T04:47:35;98960.28;;;-3.76;100.00
35331;BME280;21441;52.190;20.910;2022-12-15T04:50:19;98975.06;;;-3.63;100.00
35331;BME280;21441;52.190;20.910;2022-12-15T04:53:07;98985.63;;;-3.54;100.00
35331;BME280;21441;52.190;20.910;2022-12-15T04:55:52;98980.56;;;-3.79;100.00
35331;BME280;21441;52.190;20.910;2022-12-15T04:58:37;98982.97;;;-3.65;100.00
35331;BME280;21441;52.190;20.910;2022-12-15T05:01:23;98995.19;;;-3.65;100.00
35331;BME280;21441;52.190;20.910;2022-12-15T05:04:07;98974.50;;;-4.04;100.00
35331;BME280;21441;52.190;20.910;2022-12-15T05:06:51;98976.16;;;-4.03;100.00
35331;BME280;21441;52.190;20.910;2022-12-15T05:09:36;98999.56;;;-3.90;100.00
35331;BME280;21441;52.190;20.910;2022-12-15T05:12:20;99001.56;;;-3.94;100.00
35331;BME280;21441;52.190;20.910;2022-12-15T05:15:06;99000.44;;;-4.02;100.00
35331;BME280;21441;52.190;20.910;2022-12-15T05:17:52;99009.47;;;-4.19;100.00
35331;BME280;21441;52.190;20.910;2022-12-15T05:20:37;98999.22;;;-4.22;100.00
35331;BME280;21441;52.190;20.910;2022-12-15T05:23:22;99012.59;;;-4.40;100.00
35331;BME280;21441;52.190;20.910;2022-12-15T05:26:07;99021.84;;;-4.23;100.00
35331;BME280;21441;52.190;20.910;2022-12-15T05:28:51;99031.03;;;-4.17;100.00
35331;BME280;21441;52.190;20.910;2022-12-15T05:31:36;99026.72;;;-4.05;100.00
35331;BME280;21441;52.190;20.910;2022-12-15T05:34:22;99049.03;;;-4.14;100.00
35331;BME280;21441;52.190;20.910;2022-12-15T05:36:51;99040.47;;;-4.03;100.00
35331;BME280;21441;52.190;20.910;2022-12-15T05:39:18;99040.66;;;-4.06;100.00
35331;BME280;21441;52.190;20.910;2022-12-15T05:41:46;99040.72;;;-4.19;100.00
35331;BME280;21441;52.190;20.910;2022-12-15T05:44:13;99045.28;;;-4.23;100.00
35331;BME280;21441;52.190;20.910;2022-12-15T05:46:40;99045.81;;;-4.30;100.00
35331;BME280;21441;52.190;20.910;2022-12-15T05:49:10;99060.19;;;-4.38;100.00
35331;BME280;21441;52.190;20.910;2022-12-15T05:51:41;99047.25;;;-4.39;100.00
35331;BME280;21441;52.190;20.910;2022-12-15T05:54:10;99069.66;;;-4.24;100.00
35331;BME280;21441;52.190;20.910;2022-12-15T05:56:38;99080.69;;;-4.20;100.00
35331;BME280;21441;52.190;20.910;2022-12-15T05:59:04;99076.31;;;-4.07;100.00
35331;BME280;21441;52.190;20.910;2022-12-15T06:01:32;99082.94;;;-3.90;100.00
35331;BME280;21441;52.190;20.910;2022-12-15T06:04:00;99082.66;;;-4.24;100.00
35331;BME280;21441;52.190;20.910;2022-12-15T06:06:27;99095.81;;;-4.12;100.00
35331;BME280;21441;52.190;20.910;2022-12-15T06:08:56;99097.38;;;-4.23;100.00
35331;BME280;21441;52.190;20.910;2022-12-15T06:11:23;99096.22;;;-4.19;100.00
35331;BME280;21441;52.190;20.910;2022-12-15T06:13:51;99108.44;;;-4.19;100.00
35331;BME280;21441;52.190;20.910;2022-12-15T06:16:19;99123.31;;;-4.21;100.00
35331;BME280;21441;52.190;20.910;2022-12-15T06:18:48;99104.69;;;-4.28;100.00
35331;BME280;21441;52.190;20.910;2022-12-15T06:21:18;99123.75;;;-4.27;100.00
35331;BME280;21441;52.190;20.910;2022-12-15T06:23:46;99114.13;;;-4.40;100.00
35331;BME280;21441;52.190;20.910;2022-12-15T06:26:17;99113.59;;;-4.70;100.00
35331;BME280;21441;52.190;20.910;2022-12-15T06:28:45;99143.19;;;-4.46;100.00
35331;BME280;21441;52.190;20.910;2022-12-15T06:31:13;99149.34;;;-4.47;100.00
35331;BME280;21441;52.190;20.910;2022-12-15T06:33:41;99150.38;;;-4.62;100.00
35331;BME280;21441;52.190;20.910;2022-12-15T06:36:11;99145.59;;;-4.56;100.00
35331;BME280;21441;52.190;20.910;2022-12-15T06:38:39;99119.50;;;-4.81;100.00
35331;BME280;21441;52.190;20.910;2022-12-15T06:41:09;99152.44;;;-4.67;100.00
35331;BME280;21441;52.190;20.910;2022-12-15T06:43:38;99170.69;;;-4.42;100.00
35331;BME280;21441;52.190;20.910;2022-12-15T06:46:06;99178.94;;;-4.35;100.00
35331;BME280;21441;52.190;20.910;2022-12-15T06:48:34;99140.69;;;-4.60;100.00
35331;BME280;21441;52.190;20.910;2022-12-15T06:51:02;99181.53;;;-4.22;100.00
35331;BME280;21441;52.190;20.910;2022-12-15T06:53:29;99168.09;;;-4.29;100.00
35331;BME280;21441;52.190;20.910;2022-12-15T06:56:01;99188.53;;;-4.23;100.00
35331;BME280;21441;52.190;20.910;2022-12-15T06:58:28;99201.88;;;-4.15;100.00
35331;BME280;21441;52.190;20.910;2022-12-15T07:00:58;99197.81;;;-4.19;100.00
35331;BME280;21441;52.190;20.910;2022-12-15T07:03:26;99198.53;;;-4.17;100.00
35331;BME280;21441;52.190;20.910;2022-12-15T07:06:00;99200.72;;;-4.36;100.00
35331;BME280;21441;52.190;20.910;2022-12-15T07:08:28;99196.56;;;-4.26;100.00
35331;BME280;21441;52.190;20.910;2022-12-15T07:10:55;99217.19;;;-4.23;100.00
35331;BME280;21441;52.190;20.910;2022-12-15T07:13:22;99215.59;;;-4.38;100.00
35331;BME280;21441;52.190;20.910;2022-12-15T07:15:50;99207.25;;;-4.43;100.00
35331;BME280;21441;52.190;20.910;2022-12-15T07:18:19;99225.16;;;-4.51;100.00
35331;BME280;21441;52.190;20.910;2022-12-15T07:20:46;99235.13;;;-4.58;100.00
35331;BME280;21441;52.190;20.910;2022-12-15T07:23:13;99224.53;;;-4.42;100.00
35331;BME280;21441;52.190;20.910;2022-12-15T07:25:40;99235.91;;;-4.43;100.00
35331;BME280;21441;52.190;20.910;2022-12-15T07:28:07;99235.75;;;-4.54;100.00
35331;BME280;21441;52.190;20.910;2022-12-15T07:30:36;99249.38;;;-4.64;100.00
35331;BME280;21441;52.190;20.910;2022-12-15T07:33:04;99244.38;;;-4.67;100.00
35331;BME280;21441;52.190;20.910;2022-12-15T07:35:32;99238.34;;;-4.67;100.00
35331;BME280;21441;52.190;20.910;2022-12-15T07:37:59;99258.78;;;-4.48;100.00
35331;BME280;21441;52.190;20.910;2022-12-15T07:40:27;99260.94;;;-4.55;100.00
35331;BME280;21441;52.190;20.910;2022-12-15T07:42:54;99265.81;;;-4.36;100.00
35331;BME280;21441;52.190;20.910;2022-12-15T07:45:21;99275.19;;;-4.33;100.00
35331;BME280;21441;52.190;20.910;2022-12-15T07:47:48;99286.81;;;-4.12;100.00
35331;BME280;21441;52.190;20.910;2022-12-15T07:50:16;99285.72;;;-4.22;100.00
35331;BME280;21441;52.190;20.910;2022-12-15T07:52:45;99292.69;;;-4.36;100.00
35331;BME280;21441;52.190;20.910;2022-12-15T07:55:13;99295.88;;;-4.45;100.00
35331;BME280;21441;52.190;20.910;2022-12-15T07:57:41;99288.66;;;-4.54;100.00
35331;BME280;21441;52.190;20.910;2022-12-15T08:00:08;99253.53;;;-4.61;100.00
35331;BME280;21441;52.190;20.910;2022-12-15T08:02:36;99290.69;;;-4.45;100.00
35331;BME280;21441;52.190;20.910;2022-12-15T08:05:04;99297.59;;;-4.31;100.00
35331;BME280;21441;52.190;20.910;2022-12-15T08:07:31;99311.34;;;-4.29;100.00
35331;BME280;21441;52.190;20.910;2022-12-15T08:10:00;99311.34;;;-4.29;100.00
35331;BME280;21441;52.190;20.910;2022-12-15T08:12:27;99223.81;;;-4.99;100.00
35331;BME280;21441;52.190;20.910;2022-12-15T08:14:54;99302.34;;;-4.38;100.00
35331;BME280;21441;52.190;20.910;2022-12-15T08:17:21;99294.06;;;-4.30;100.00
35331;BME280;21441;52.190;20.910;2022-12-15T08:19:48;99308.13;;;-4.32;100.00
35331;BME280;21441;52.190;20.910;2022-12-15T08:22:16;99317.63;;;-4.19;100.00
35331;BME280;21441;52.190;20.910;2022-12-15T08:24:43;99340.00;;;-4.02;100.00
35331;BME280;21441;52.190;20.910;2022-12-15T08:27:11;99335.91;;;-4.33;100.00
35331;BME280;21441;52.190;20.910;2022-12-15T08:29:38;99330.53;;;-4.30;100.00
35331;BME280;21441;52.190;20.910;2022-12-15T08:32:06;99346.41;;;-4.07;100.00
35331;BME280;21441;52.190;20.910;2022-12-15T08:34:34;99332.13;;;-4.15;100.00
35331;BME280;21441;52.190;20.910;2022-12-15T08:37:01;99356.44;;;-4.28;100.00
35331;BME280;21441;52.190;20.910;2022-12-15T08:39:28;99361.41;;;-4.38;100.00
35331;BME280;21441;52.190;20.910;2022-12-15T08:41:56;99368.34;;;-4.24;100.00
35331;BME280;21441;52.190;20.910;2022-12-15T08:44:24;99356.06;;;-4.22;100.00
35331;BME280;21441;52.190;20.910;2022-12-15T08:46:51;99361.84;;;-4.04;100.00
35331;BME280;21441;52.190;20.910;2022-12-15T08:49:18;99368.81;;;-4.05;100.00
35331;BME280;21441;52.190;20.910;2022-12-15T08:51:45;99355.63;;;-4.29;100.00
35331;BME280;21441;52.190;20.910;2022-12-15T08:54:13;99374.59;;;-4.27;100.00
35331;BME280;21441;52.190;20.910;2022-12-15T08:56:40;99371.16;;;-4.27;100.00
35331;BME280;21441;52.190;20.910;2022-12-15T08:59:07;99374.28;;;-4.22;100.00
35331;BME280;21441;52.190;20.910;2022-12-15T09:01:36;99372.66;;;-4.38;100.00
35331;BME280;21441;52.190;20.910;2022-12-15T09:04:05;99383.22;;;-4.26;100.00
35331;BME280;21441;52.190;20.910;2022-12-15T09:06:34;99387.59;;;-4.27;100.00
35331;BME280;21441;52.190;20.910;2022-12-15T09:09:05;99376.72;;;-4.19;100.00
35331;BME280;21441;52.190;20.910;2022-12-15T09:11:33;99381.19;;;-4.21;100.00
35331;BME280;21441;52.190;20.910;2022-12-15T09:14:00;99372.13;;;-4.43;100.00
35331;BME280;21441;52.190;20.910;2022-12-15T09:16:29;99395.91;;;-4.34;100.00
35331;BME280;21441;52.190;20.910;2022-12-15T09:18:58;99391.84;;;-4.11;100.00
35331;BME280;21441;52.190;20.910;2022-12-15T09:21:27;99389.63;;;-3.90;100.00
35331;BME280;21441;52.190;20.910;2022-12-15T09:23:55;99400.66;;;-3.87;100.00
35331;BME280;21441;52.190;20.910;2022-12-15T09:26:25;99400.97;;;-4.19;100.00
35331;BME280;21441;52.190;20.910;2022-12-15T09:28:53;99399.81;;;-4.27;100.00
35331;BME280;21441;52.190;20.910;2022-12-15T09:31:22;99411.69;;;-4.23;100.00
35331;BME280;21441;52.190;20.910;2022-12-15T09:33:51;99415.06;;;-4.36;100.00
35331;BME280;21441;52.190;20.910;2022-12-15T09:36:21;99418.78;;;-4.25;100.00
35331;BME280;21441;52.190;20.910;2022-12-15T09:38:48;99424.34;;;-4.17;100.00
35331;BME280;21441;52.190;20.910;2022-12-15T09:41:20;99417.06;;;-4.12;100.00
35331;BME280;21441;52.190;20.910;2022-12-15T09:43:54;99420.59;;;-3.86;100.00
35331;BME280;21441;52.190;20.910;2022-12-15T09:46:28;99416.28;;;-3.60;100.00
35331;BME280;21441;52.190;20.910;2022-12-15T09:49:00;99429.13;;;-3.44;100.00
35331;BME280;21441;52.190;20.910;2022-12-15T09:51:32;99418.69;;;-3.57;100.00
35331;BME280;21441;52.190;20.910;2022-12-15T09:54:02;99422.16;;;-3.43;100.00
35331;BME280;21441;52.190;20.910;2022-12-15T09:56:37;99434.75;;;-3.50;100.00
35331;BME280;21441;52.190;20.910;2022-12-15T09:59:15;99430.56;;;-3.65;100.00
35331;BME280;21441;52.190;20.910;2022-12-15T10:01:54;99438.38;;;-4.20;100.00
35331;BME280;21441;52.190;20.910;2022-12-15T10:04:34;99430.72;;;-4.08;100.00
35331;BME280;21441;52.190;20.910;2022-12-15T10:07:10;99430.91;;;-3.84;100.00
35331;BME280;21441;52.190;20.910;2022-12-15T10:09:40;99435.75;;;-3.65;100.00
35331;BME280;21441;52.190;20.910;2022-12-15T10:12:12;99442.44;;;-3.61;100.00
35331;BME280;21441;52.190;20.910;2022-12-15T10:14:45;99445.22;;;-4.04;100.00
35331;BME280;21441;52.190;20.910;2022-12-15T10:17:19;99436.41;;;-4.16;100.00
35331;BME280;21441;52.190;20.910;2022-12-15T10:19:54;99452.41;;;-4.08;100.00
35331;BME280;21441;52.190;20.910;2022-12-15T10:22:24;99450.88;;;-3.98;100.00
35331;BME280;21441;52.190;20.910;2022-12-15T10:24:52;99462.25;;;-4.13;100.00
35331;BME280;21441;52.190;20.910;2022-12-15T10:27:31;99462.03;;;-4.23;100.00
35331;BME280;21441;52.190;20.910;2022-12-15T10:30:04;99462.97;;;-3.97;100.00
35331;BME280;21441;52.190;20.910;2022-12-15T10:32:41;99473.84;;;-3.90;100.00
35331;BME280;21441;52.190;20.910;2022-12-15T10:35:15;99469.97;;;-3.97;100.00
35331;BME280;21441;52.190;20.910;2022-12-15T10:37:43;99466.91;;;-4.04;100.00
35331;BME280;21441;52.190;20.910;2022-12-15T10:40:17;99474.53;;;-4.15;100.00
35331;BME280;21441;52.190;20.910;2022-12-15T10:42:46;99482.41;;;-4.44;100.00
35331;BME280;21441;52.190;20.910;2022-12-15T10:45:30;99466.34;;;-4.65;100.00
35331;BME280;21441;52.190;20.910;2022-12-15T10:48:00;99484.50;;;-4.63;100.00
35331;BME280;21441;52.190;20.910;2022-12-15T10:50:28;99490.13;;;-4.85;100.00
35331;BME280;21441;52.190;20.910;2022-12-15T10:52:57;99468.50;;;-4.71;100.00
35331;BME280;21441;52.190;20.910;2022-12-15T10:55:35;99490.53;;;-4.63;100.00
35331;BME280;21441;52.190;20.910;2022-12-15T10:58:14;99492.84;;;-4.58;100.00
35331;BME280;21441;52.190;20.910;2022-12-15T11:00:42;99499.25;;;-4.49;100.00
35331;BME280;21441;52.190;20.910;2022-12-15T11:03:22;99507.50;;;-4.57;100.00
35331;BME280;21441;52.190;20.910;2022-12-15T11:05:51;99501.22;;;-4.67;100.00
35331;BME280;21441;52.190;20.910;2022-12-15T11:08:20;99502.78;;;-4.50;100.00
35331;BME280;21441;52.190;20.910;2022-12-15T11:10:50;99502.59;;;-4.62;100.00
35331;BME280;21441;52.190;20.910;2022-12-15T11:13:35;99442.81;;;-4.92;100.00
35331;BME280;21441;52.190;20.910;2022-12-15T11:16:10;99512.44;;;-4.52;100.00
35331;BME280;21441;52.190;20.910;2022-12-15T11:18:44;99493.75;;;-4.59;100.00
35331;BME280;21441;52.190;20.910;2022-12-15T11:21:19;99511.16;;;-4.60;100.00
35331;BME280;21441;52.190;20.910;2022-12-15T11:23:57;99509.91;;;-4.97;100.00
35331;BME280;21441;52.190;20.910;2022-12-15T11:26:33;99508.34;;;-4.85;100.00
35331;BME280;21441;52.190;20.910;2022-12-15T11:29:09;99526.81;;;-4.90;100.00
35331;BME280;21441;52.190;20.910;2022-12-15T11:31:40;99536.72;;;-4.66;100.00
35331;BME280;21441;52.190;20.910;2022-12-15T11:34:11;99536.72;;;-4.81;100.00
35331;BME280;21441;52.190;20.910;2022-12-15T11:37:00;99521.72;;;-4.91;100.00
35331;BME280;21441;52.190;20.910;2022-12-15T11:39:48;99534.53;;;-4.88;100.00
35331;BME280;21441;52.190;20.910;2022-12-15T11:42:22;99536.25;;;-4.87;100.00
35331;BME280;21441;52.190;20.910;2022-12-15T11:44:58;99542.44;;;-4.90;100.00
35331;BME280;21441;52.190;20.910;2022-12-15T11:47:35;99547.63;;;-4.90;100.00
35331;BME280;21441;52.190;20.910;2022-12-15T11:50:13;99555.81;;;-4.96;100.00
35331;BME280;21441;52.190;20.910;2022-12-15T11:52:56;99564.69;;;-4.70;100.00
35331;BME280;21441;52.190;20.910;2022-12-15T11:55:34;99568.19;;;-4.85;100.00
35331;BME280;21441;52.190;20.910;2022-12-15T12:01:05;99562.91;;;-4.84;100.00
35331;BME280;21441;52.190;20.910;2022-12-15T12:03:39;99546.44;;;-4.84;100.00
35331;BME280;21441;52.190;20.910;2022-12-15T12:06:15;99568.69;;;-4.64;100.00
35331;BME280;21441;52.190;20.910;2022-12-15T12:08:58;99570.75;;;-4.69;100.00
35331;BME280;21441;52.190;20.910;2022-12-15T12:11:34;99581.00;;;-4.52;100.00
35331;BME280;21441;52.190;20.910;2022-12-15T12:14:14;99583.31;;;-4.47;100.00
35331;BME280;21441;52.190;20.910;2022-12-15T12:16:52;99575.88;;;-4.53;100.00
35331;BME280;21441;52.190;20.910;2022-12-15T12:19:26;99587.13;;;-4.53;100.00
35331;BME280;21441;52.190;20.910;2022-12-15T12:22:10;99593.50;;;-4.73;100.00
35331;BME280;21441;52.190;20.910;2022-12-15T12:24:43;99583.16;;;-4.74;100.00
35331;BME280;21441;52.190;20.910;2022-12-15T12:27:17;99599.75;;;-4.61;100.00
35331;BME280;21441;52.190;20.910;2022-12-15T12:29:52;99604.69;;;-4.57;100.00
35331;BME280;21441;52.190;20.910;2022-12-15T12:32:31;99600.22;;;-4.54;100.00
35331;BME280;21441;52.190;20.910;2022-12-15T12:35:03;99609.88;;;-4.71;100.00
35331;BME280;21441;52.190;20.910;2022-12-15T12:37:36;99612.94;;;-4.64;100.00
35331;BME280;21441;52.190;20.910;2022-12-15T12:40:15;99606.84;;;-4.49;100.00
35331;BME280;21441;52.190;20.910;2022-12-15T12:42:48;99605.34;;;-4.53;100.00
35331;BME280;21441;52.190;20.910;2022-12-15T12:45:18;99619.50;;;-4.28;100.00
35331;BME280;21441;52.190;20.910;2022-12-15T12:47:49;99606.03;;;-4.21;100.00
35331;BME280;21441;52.190;20.910;2022-12-15T12:50:20;99618.22;;;-4.21;100.00
35331;BME280;21441;52.190;20.910;2022-12-15T12:52:49;99627.88;;;-4.38;100.00
35331;BME280;21441;52.190;20.910;2022-12-15T12:55:24;99620.97;;;-4.53;100.00
35331;BME280;21441;52.190;20.910;2022-12-15T12:57:54;99626.31;;;-4.70;100.00
35331;BME280;21441;52.190;20.910;2022-12-15T13:00:23;99619.94;;;-4.65;100.00
35331;BME280;21441;52.190;20.910;2022-12-15T13:03:17;99645.97;;;-4.50;100.00
35331;BME280;21441;52.190;20.910;2022-12-15T13:05:47;99641.38;;;-4.75;100.00
35331;BME280;21441;52.190;20.910;2022-12-15T13:14:19;99647.13;;;-5.01;100.00
35331;BME280;21441;52.190;20.910;2022-12-15T13:16:47;99641.16;;;-4.87;100.00
35331;BME280;21441;52.190;20.910;2022-12-15T13:22:22;99654.34;;;-5.06;100.00
35331;BME280;21441;52.190;20.910;2022-12-15T13:24:50;99637.50;;;-5.14;100.00
35331;BME280;21441;52.190;20.910;2022-12-15T13:27:18;99663.75;;;-5.03;100.00